Time,TemperatureF,DewpointF,PressureIn,WindDirection,WindDirectionDegrees,WindSpeedMPH,WindSpeedGustMPH,Humidity,HourlyPrecipIn,Conditions,Clouds,dailyrainin,SoftwareType,DateUTC
2013-06-14 00:01:00,58.7,39.6,30.23,NNW,343,2.0,3.0,49,0.00,,---,0.00,VWS V14.01,2013-06-14 06:01:00,
2013-06-14 00:06:00,58.4,39.8,30.23,West,263,1.0,1.0,50,0.00,,---,0.00,VWS V14.01,2013-06-14 06:06:00,
2013-06-14 00:11:00,57.9,39.9,30.23,NNW,339,2.0,3.0,51,0.00,,---,0.00,VWS V14.01,2013-06-14 06:11:00,
2013-06-14 00:16:00,57.2,39.2,30.23,NNW,339,2.0,3.0,51,0.00,,---,0.00,VWS V14.01,2013-06-14 06:16:00,
2013-06-14 00:21:00,57.4,38.9,30.23,NNW,343,4.0,5.0,50,0.00,,---,0.00,VWS V14.01,2013-06-14 06:21:00,
2013-06-14 00:26:00,57.2,38.8,30.23,WNW,291,1.0,5.0,50,0.00,,---,0.00,VWS V14.01,2013-06-14 06:26:00,
2013-06-14 00:31:00,57.0,38.6,30.22,NNW,338,3.0,5.0,50,0.00,,---,0.00,VWS V14.01,2013-06-14 06:31:00,
2013-06-14 00:36:00,56.7,38.3,30.22,NNW,335,1.0,4.0,50,0.00,,---,0.00,VWS V14.01,2013-06-14 06:36:00,
2013-06-14 00:41:00,56.5,38.6,30.22,NW,309,2.0,4.0,51,0.00,,---,0.00,VWS V14.01,2013-06-14 06:41:00,
2013-06-14 00:46:00,56.4,39.0,30.22,NW,318,2.0,4.0,52,0.00,,---,0.00,VWS V14.01,2013-06-14 06:46:00,
2013-06-14 00:51:00,56.8,38.4,30.22,NNW,336,2.0,4.0,50,0.00,,---,0.00,VWS V14.01,2013-06-14 06:51:00,
2013-06-14 00:56:00,56.4,38.0,30.22,NNW,342,2.0,4.0,50,0.00,,---,0.00,VWS V14.01,2013-06-14 06:56:00,
2013-06-14 01:01:00,56.2,38.3,30.22,North,352,2.0,4.0,51,0.00,,---,0.00,VWS V14.01,2013-06-14 07:01:00,
2013-06-14 01:06:00,56.3,38.4,30.22,NW,323,1.0,1.0,51,0.00,,---,0.00,VWS V14.01,2013-06-14 07:06:00,
2013-06-14 01:11:00,56.1,37.7,30.21,NNW,333,1.0,2.0,50,0.00,,---,0.00,VWS V14.01,2013-06-14 07:11:00,
2013-06-14 01:16:00,56.2,37.8,30.21,NNW,338,0.0,2.0,50,0.00,,---,0.00,VWS V14.01,2013-06-14 07:16:00,
2013-06-14 01:21:00,56.5,37.6,30.21,NNW,348,1.0,2.0,49,0.00,,---,0.00,VWS V14.01,2013-06-14 07:21:00,
2013-06-14 01:26:00,56.4,37.0,30.21,NNW,348,0.0,2.0,48,0.00,,---,0.00,VWS V14.01,2013-06-14 07:26:00,
2013-06-14 01:31:00,56.4,37.5,30.21,NNW,340,1.0,2.0,49,0.00,,---,0.00,VWS V14.01,2013-06-14 07:31:00,
2013-06-14 01:36:00,56.6,37.7,30.21,NNW,348,0.0,1.0,49,0.00,,---,0.00,VWS V14.01,2013-06-14 07:36:00,
2013-06-14 01:41:00,56.6,36.6,30.20,NNW,348,1.0,2.0,47,0.00,,---,0.00,VWS V14.01,2013-06-14 07:41:00,
2013-06-14 01:46:00,57.0,35.3,30.20,NNW,345,1.0,2.0,44,0.00,,---,0.00,VWS V14.01,2013-06-14 07:46:00,
2013-06-14 01:51:00,57.4,33.9,30.20,NNW,340,2.0,2.0,41,0.00,,---,0.00,VWS V14.01,2013-06-14 07:51:00,
2013-06-14 01:56:00,57.8,33.0,30.20,NNW,338,1.0,2.0,39,0.00,,---,0.00,VWS V14.01,2013-06-14 07:56:00,
2013-06-14 02:01:00,57.8,31.7,30.20,NW,321,0.0,2.0,37,0.00,,---,0.00,VWS V14.01,2013-06-14 08:01:00,
2013-06-14 02:06:00,58.3,32.8,30.20,NW,321,1.0,2.0,38,0.00,,---,0.00,VWS V14.01,2013-06-14 08:06:00,
2013-06-14 02:11:00,58.4,32.2,30.20,NNW,340,2.0,2.0,37,0.00,,---,0.00,VWS V14.01,2013-06-14 08:11:00,
2013-06-14 02:16:00,58.2,32.1,30.20,NNW,336,1.0,2.0,37,0.00,,---,0.00,VWS V14.01,2013-06-14 08:16:00,
2013-06-14 02:21:00,58.2,31.4,30.20,West,273,1.0,2.0,36,0.00,,---,0.00,VWS V14.01,2013-06-14 08:21:00,
2013-06-14 02:26:00,58.5,31.7,30.20,NW,322,2.0,2.0,36,0.00,,---,0.00,VWS V14.01,2013-06-14 08:26:00,
2013-06-14 02:31:00,58.8,31.2,30.20,NNW,330,1.0,2.0,35,0.00,,---,0.00,VWS V14.01,2013-06-14 08:31:00,
2013-06-14 02:36:00,58.9,30.6,30.20,NNW,330,0.0,0.0,34,0.00,,---,0.00,VWS V14.01,2013-06-14 08:36:00,
2013-06-14 02:41:00,58.9,31.3,30.19,North,355,1.0,1.0,35,0.00,,---,0.00,VWS V14.01,2013-06-14 08:41:00,
2013-06-14 02:46:00,58.8,30.5,30.19,North,356,0.0,1.0,34,0.00,,---,0.00,VWS V14.01,2013-06-14 08:46:00,
2013-06-14 02:51:00,58.8,30.5,30.19,North,352,2.0,2.0,34,0.00,,---,0.00,VWS V14.01,2013-06-14 08:51:00,
2013-06-14 02:56:00,58.6,31.0,30.19,East,89,0.0,2.0,35,0.00,,---,0.00,VWS V14.01,2013-06-14 08:56:00,
2013-06-14 03:01:00,58.9,30.6,30.19,NW,307,0.0,2.0,34,0.00,,---,0.00,VWS V14.01,2013-06-14 09:01:00,
2013-06-14 03:06:00,58.9,30.6,30.20,NW,311,1.0,1.0,34,0.00,,---,0.00,VWS V14.01,2013-06-14 09:06:00,
2013-06-14 03:11:00,58.8,31.2,30.20,NNW,342,0.0,2.0,35,0.00,,---,0.00,VWS V14.01,2013-06-14 09:11:00,
2013-06-14 03:16:00,58.4,30.9,30.20,NNW,338,0.0,2.0,35,0.00,,---,0.00,VWS V14.01,2013-06-14 09:16:00,
2013-06-14 03:21:00,57.8,31.0,30.20,NNW,343,1.0,2.0,36,0.00,,---,0.00,VWS V14.01,2013-06-14 09:21:00,
2013-06-14 03:26:00,57.7,31.0,30.20,NNW,338,1.0,2.0,36,0.00,,---,0.00,VWS V14.01,2013-06-14 09:26:00,
2013-06-14 03:31:00,57.9,31.1,30.20,NW,320,1.0,2.0,36,0.00,,---,0.00,VWS V14.01,2013-06-14 09:31:00,
2013-06-14 03:36:00,58.2,31.4,30.20,North,349,1.0,1.0,36,0.00,,---,0.00,VWS V14.01,2013-06-14 09:36:00,
2013-06-14 03:41:00,58.1,31.3,30.20,WSW,248,1.0,2.0,36,0.00,,---,0.00,VWS V14.01,2013-06-14 09:41:00,
2013-06-14 03:46:00,58.3,31.5,30.20,NNW,330,1.0,2.0,36,0.00,,---,0.00,VWS V14.01,2013-06-14 09:46:00,
2013-06-14 03:51:00,58.0,31.2,30.20,NNW,347,1.0,2.0,36,0.00,,---,0.00,VWS V14.01,2013-06-14 09:51:00,
2013-06-14 03:56:00,57.8,31.7,30.20,North,349,2.0,2.0,37,0.00,,---,0.00,VWS V14.01,2013-06-14 09:56:00,
2013-06-14 04:01:00,57.4,31.4,30.20,NNW,347,1.0,3.0,37,0.00,,---,0.00,VWS V14.01,2013-06-14 10:01:00,
2013-06-14 04:06:00,57.3,31.3,30.20,North,358,1.0,2.0,37,0.00,,---,0.00,VWS V14.01,2013-06-14 10:06:00,
2013-06-14 04:11:00,57.3,31.3,30.20,North,356,1.0,2.0,37,0.00,,---,0.00,VWS V14.01,2013-06-14 10:11:00,
2013-06-14 04:16:00,57.1,31.1,30.20,NNW,344,2.0,2.0,37,0.00,,---,0.00,VWS V14.01,2013-06-14 10:16:00,
2013-06-14 04:21:00,57.0,31.7,30.20,NNW,343,2.0,2.0,38,0.00,,---,0.00,VWS V14.01,2013-06-14 10:21:00,
2013-06-14 04:26:00,56.8,31.5,30.21,North,349,0.0,2.0,38,0.00,,---,0.00,VWS V14.01,2013-06-14 10:26:00,
2013-06-14 04:31:00,56.7,31.4,30.21,North,357,0.0,2.0,38,0.00,,---,0.00,VWS V14.01,2013-06-14 10:31:00,
2013-06-14 04:36:00,56.8,31.5,30.22,North,354,2.0,2.0,38,0.00,,---,0.00,VWS V14.01,2013-06-14 10:36:00,
2013-06-14 04:41:00,56.8,31.5,30.21,WNW,282,1.0,2.0,38,0.00,,---,0.00,VWS V14.01,2013-06-14 10:41:00,
2013-06-14 04:46:00,56.5,31.2,30.21,NW,325,0.0,2.0,38,0.00,,---,0.00,VWS V14.01,2013-06-14 10:46:00,
2013-06-14 04:51:00,56.4,31.8,30.21,NNW,343,0.0,2.0,39,0.00,,---,0.00,VWS V14.01,2013-06-14 10:51:00,
2013-06-14 04:56:00,56.3,31.7,30.22,NW,324,0.0,2.0,39,0.00,,---,0.00,VWS V14.01,2013-06-14 10:56:00,
2013-06-14 05:01:00,56.5,31.2,30.22,West,260,1.0,2.0,38,0.00,,---,0.00,VWS V14.01,2013-06-14 11:01:00,
2013-06-14 05:06:00,57.5,31.5,30.21,SW,222,0.0,1.0,37,0.00,,---,0.00,VWS V14.01,2013-06-14 11:06:00,
2013-06-14 05:11:00,57.9,29.0,30.22,WSW,253,0.0,1.0,33,0.00,,---,0.00,VWS V14.01,2013-06-14 11:11:00,
2013-06-14 05:16:00,57.9,29.0,30.22,WSW,253,0.0,1.0,33,0.00,,---,0.00,VWS V14.01,2013-06-14 11:16:00,
2013-06-14 05:21:00,57.9,29.0,30.22,WSW,253,0.0,1.0,33,0.00,,---,0.00,VWS V14.01,2013-06-14 11:21:00,
2013-06-14 05:26:00,57.9,29.0,30.22,WSW,253,0.0,1.0,33,0.00,,---,0.00,VWS V14.01,2013-06-14 11:26:00,
2013-06-14 05:31:00,57.9,29.0,30.22,WSW,253,0.0,1.0,33,0.00,,---,0.00,VWS V14.01,2013-06-14 11:31:00,
2013-06-14 05:36:00,57.9,29.0,30.22,WSW,253,0.0,0.0,33,0.00,,---,0.00,VWS V14.01,2013-06-14 11:36:00,
2013-06-14 05:41:00,57.9,29.0,30.22,WSW,253,0.0,0.0,33,0.00,,---,0.00,VWS V14.01,2013-06-14 11:41:00,
2013-06-14 05:46:00,57.9,29.0,30.22,WSW,253,0.0,0.0,33,0.00,,---,0.00,VWS V14.01,2013-06-14 11:46:00,
2013-06-14 05:51:00,57.9,29.0,30.23,WSW,253,0.0,0.0,33,0.00,,---,0.00,VWS V14.01,2013-06-14 11:51:00,
2013-06-14 05:56:00,57.9,29.0,30.23,WSW,253,0.0,0.0,33,0.00,,---,0.00,VWS V14.01,2013-06-14 11:56:00,
2013-06-14 06:01:00,57.9,29.0,30.23,WSW,253,0.0,0.0,33,0.00,,---,0.00,VWS V14.01,2013-06-14 12:01:00,
2013-06-14 06:06:00,57.9,29.0,30.23,WSW,253,0.0,0.0,33,0.00,,---,0.00,VWS V14.01,2013-06-14 12:06:00,
2013-06-14 06:11:00,57.9,29.0,30.23,WSW,253,0.0,0.0,33,0.00,,---,0.00,VWS V14.01,2013-06-14 12:11:00,
2013-06-14 06:16:00,57.9,29.0,30.23,WSW,253,0.0,0.0,33,0.00,,---,0.00,VWS V14.01,2013-06-14 12:16:00,
2013-06-14 06:21:00,57.9,29.0,30.23,WSW,253,0.0,0.0,33,0.00,,---,0.00,VWS V14.01,2013-06-14 12:21:00,
2013-06-14 06:26:00,57.9,29.0,30.23,WSW,253,0.0,0.0,33,0.00,,---,0.00,VWS V14.01,2013-06-14 12:26:00,
2013-06-14 06:31:00,57.9,29.0,30.24,WSW,253,0.0,0.0,33,0.00,,---,0.00,VWS V14.01,2013-06-14 12:31:00,
2013-06-14 06:36:00,57.9,29.0,30.24,WSW,253,0.0,0.0,33,0.00,,---,0.00,VWS V14.01,2013-06-14 12:36:00,
2013-06-14 06:41:00,57.9,29.0,30.24,WSW,253,0.0,0.0,33,0.00,,---,0.00,VWS V14.01,2013-06-14 12:41:00,
2013-06-14 06:46:00,57.9,29.0,30.24,WSW,253,0.0,0.0,33,0.00,,---,0.00,VWS V14.01,2013-06-14 12:46:00,
2013-06-14 06:51:00,57.9,29.0,30.24,WSW,253,0.0,0.0,33,0.00,,---,0.00,VWS V14.01,2013-06-14 12:51:00,
2013-06-14 06:56:00,57.9,29.0,30.24,WSW,253,0.0,0.0,33,0.00,,---,0.00,VWS V14.01,2013-06-14 12:56:00,
2013-06-14 07:01:00,57.9,29.0,30.24,WSW,253,0.0,0.0,33,0.00,,---,0.00,VWS V14.01,2013-06-14 13:01:00,
2013-06-14 07:06:00,57.9,29.0,30.24,WSW,253,0.0,0.0,33,0.00,,---,0.00,VWS V14.01,2013-06-14 13:06:00,
2013-06-14 07:11:00,57.9,29.0,30.24,WSW,253,0.0,0.0,33,0.00,,---,0.00,VWS V14.01,2013-06-14 13:11:00,
2013-06-14 07:16:00,57.9,29.0,30.24,WSW,253,0.0,0.0,33,0.00,,---,0.00,VWS V14.01,2013-06-14 13:16:00,
2013-06-14 07:21:00,57.9,29.0,30.24,WSW,253,0.0,0.0,33,0.00,,---,0.00,VWS V14.01,2013-06-14 13:21:00,
2013-06-14 07:26:00,57.9,29.0,30.24,WSW,253,0.0,0.0,33,0.00,,---,0.00,VWS V14.01,2013-06-14 13:26:00,
2013-06-14 07:31:00,57.9,29.0,30.24,WSW,253,0.0,0.0,33,0.00,,---,0.00,VWS V14.01,2013-06-14 13:31:00,
2013-06-14 07:36:00,57.9,29.0,30.24,WSW,253,0.0,0.0,33,0.00,,---,0.00,VWS V14.01,2013-06-14 13:36:00,
2013-06-14 07:41:00,58.2,32.1,30.24,WNW,287,3.0,3.0,37,0.00,,---,0.00,VWS V14.01,2013-06-14 13:41:00,
2013-06-14 07:46:00,59.4,33.8,30.24,SE,124,3.0,3.0,38,0.00,,---,0.00,VWS V14.01,2013-06-14 13:46:00,
2013-06-14 07:51:00,60.5,34.1,30.24,SE,130,1.0,3.0,37,0.00,,---,0.00,VWS V14.01,2013-06-14 13:51:00,
2013-06-14 07:56:00,61.6,33.0,30.24,ESE,122,1.0,4.0,34,0.00,,---,0.00,VWS V14.01,2013-06-14 13:56:00,
2013-06-14 08:01:00,62.2,33.5,30.24,SE,126,0.0,4.0,34,0.00,,---,0.00,VWS V14.01,2013-06-14 14:01:00,
2013-06-14 08:06:00,62.8,31.7,30.24,SSE,160,2.0,2.0,31,0.00,,---,0.00,VWS V14.01,2013-06-14 14:06:00,
2013-06-14 08:10:00,63.4,32.3,30.24,SE,134,1.0,3.0,31,0.00,,---,0.00,VWS V14.01,2013-06-14 14:10:00,
2013-06-14 08:15:00,63.8,31.8,30.24,South,176,4.0,4.0,30,0.00,,---,0.00,VWS V14.01,2013-06-14 14:15:00,
2013-06-14 08:20:00,64.4,30.6,30.25,South,187,1.0,5.0,28,0.00,,---,0.00,VWS V14.01,2013-06-14 14:20:00,
2013-06-14 08:25:00,64.7,30.9,30.25,South,186,2.0,5.0,28,0.00,,---,0.00,VWS V14.01,2013-06-14 14:25:00,
2013-06-14 08:30:00,65.2,29.5,30.25,SSE,168,3.0,5.0,26,0.00,,---,0.00,VWS V14.01,2013-06-14 14:30:00,
2013-06-14 08:35:00,65.7,29.0,30.25,WSW,246,2.0,4.0,25,0.00,,---,0.00,VWS V14.01,2013-06-14 14:35:00,
2013-06-14 08:40:00,65.6,29.8,30.25,West,266,1.0,6.0,26,0.00,,---,0.00,VWS V14.01,2013-06-14 14:40:00,
2013-06-14 08:45:00,65.6,28.9,30.26,SE,125,2.0,6.0,25,0.00,,---,0.00,VWS V14.01,2013-06-14 14:45:00,
2013-06-14 08:50:00,65.5,28.8,30.26,WSW,255,1.0,6.0,25,0.00,,---,0.00,VWS V14.01,2013-06-14 14:50:00,
2013-06-14 08:55:00,65.7,29.0,30.26,SE,134,3.0,6.0,25,0.00,,---,0.00,VWS V14.01,2013-06-14 14:55:00,
2013-06-14 09:00:00,66.0,27.2,30.26,SE,138,4.0,6.0,23,0.00,,---,0.00,VWS V14.01,2013-06-14 15:00:00,
2013-06-14 09:05:00,66.2,26.3,30.26,SE,144,5.0,5.0,22,0.00,,---,0.00,VWS V14.01,2013-06-14 15:05:00,
2013-06-14 09:10:00,66.7,28.8,30.26,SSE,156,2.0,5.0,24,0.00,,---,0.00,VWS V14.01,2013-06-14 15:10:00,
2013-06-14 09:15:00,67.6,27.4,30.25,SW,217,2.0,5.0,22,0.00,,---,0.00,VWS V14.01,2013-06-14 15:15:00,
2013-06-14 09:20:00,68.3,26.9,30.25,SSW,200,0.0,7.0,21,0.00,,---,0.00,VWS V14.01,2013-06-14 15:20:00,
2013-06-14 09:25:00,68.8,24.9,30.25,WSW,248,1.0,7.0,19,0.00,,---,0.00,VWS V14.01,2013-06-14 15:25:00,
2013-06-14 09:30:00,69.3,25.3,30.25,SE,132,2.0,7.0,19,0.00,,---,0.00,VWS V14.01,2013-06-14 15:30:00,
2013-06-14 09:35:00,69.7,25.6,30.25,SSE,147,2.0,3.0,19,0.00,,---,0.00,VWS V14.01,2013-06-14 15:35:00,
2013-06-14 09:40:00,70.1,26.0,30.25,SE,135,2.0,5.0,19,0.00,,---,0.00,VWS V14.01,2013-06-14 15:40:00,
2013-06-14 09:45:00,70.2,27.3,30.25,WSW,240,2.0,6.0,20,0.00,,---,0.00,VWS V14.01,2013-06-14 15:45:00,
2013-06-14 09:50:00,70.1,24.7,30.25,WSW,250,2.0,6.0,18,0.00,,---,0.00,VWS V14.01,2013-06-14 15:50:00,
2013-06-14 09:55:00,70.0,24.6,30.25,West,268,3.0,6.0,18,0.00,,---,0.00,VWS V14.01,2013-06-14 15:55:00,
2013-06-14 10:00:00,70.1,23.3,30.25,West,262,3.0,6.0,17,0.00,,---,0.00,VWS V14.01,2013-06-14 16:00:00,
2013-06-14 10:05:00,70.2,20.4,30.25,SE,134,3.0,4.0,15,0.00,,---,0.00,VWS V14.01,2013-06-14 16:05:00,
2013-06-14 10:10:00,69.8,21.6,30.25,SSE,152,5.0,8.0,16,0.00,,---,0.00,VWS V14.01,2013-06-14 16:10:00,
2013-06-14 10:15:00,70.5,22.2,30.25,West,259,5.0,8.0,16,0.00,,---,0.00,VWS V14.01,2013-06-14 16:15:00,
2013-06-14 10:20:00,70.3,22.0,30.25,West,261,3.0,8.0,16,0.00,,---,0.00,VWS V14.01,2013-06-14 16:20:00,
2013-06-14 10:25:00,71.0,21.1,30.25,West,274,1.0,8.0,15,0.00,,---,0.00,VWS V14.01,2013-06-14 16:25:00,
2013-06-14 10:30:00,71.2,19.6,30.25,West,266,0.0,8.0,14,0.00,,---,0.00,VWS V14.01,2013-06-14 16:30:00,
2013-06-14 10:35:00,71.4,18.0,30.25,East,94,4.0,4.0,13,0.00,,---,0.00,VWS V14.01,2013-06-14 16:35:00,
2013-06-14 10:40:00,71.4,19.8,30.26,SSE,148,4.0,7.0,14,0.00,,---,0.00,VWS V14.01,2013-06-14 16:40:00,
2013-06-14 10:45:00,71.2,16.0,30.26,SSW,194,3.0,9.0,12,0.00,,---,0.00,VWS V14.01,2013-06-14 16:45:00,
2013-06-14 10:50:00,71.7,18.3,30.26,SSW,194,2.0,9.0,13,0.00,,---,0.00,VWS V14.01,2013-06-14 16:50:00,
2013-06-14 10:55:00,71.4,14.2,30.26,ESE,110,6.0,9.0,11,0.00,,---,0.00,VWS V14.01,2013-06-14 16:55:00,
2013-06-14 11:00:00,71.9,16.6,30.26,NW,321,3.0,9.0,12,0.00,,---,0.00,VWS V14.01,2013-06-14 17:00:00,
2013-06-14 11:05:00,71.8,14.5,30.26,SSE,163,7.0,7.0,11,0.00,,---,0.00,VWS V14.01,2013-06-14 17:05:00,
2013-06-14 11:10:00,71.7,12.3,30.26,West,280,1.0,12.0,10,0.00,,---,0.00,VWS V14.01,2013-06-14 17:10:00,
2013-06-14 11:15:00,71.9,14.6,30.26,SW,228,4.0,12.0,11,0.00,,---,0.00,VWS V14.01,2013-06-14 17:15:00,
2013-06-14 11:20:00,72.2,14.8,30.26,East,81,2.0,12.0,11,0.00,,---,0.00,VWS V14.01,2013-06-14 17:20:00,
2013-06-14 11:25:00,72.6,10.6,30.26,NNE,23,8.0,12.0,9,0.00,,---,0.00,VWS V14.01,2013-06-14 17:25:00,
2013-06-14 11:30:00,72.4,12.8,30.25,WNW,295,3.0,12.0,10,0.00,,---,0.00,VWS V14.01,2013-06-14 17:30:00,
2013-06-14 11:35:00,73.1,15.5,30.25,SE,146,4.0,8.0,11,0.00,,---,0.00,VWS V14.01,2013-06-14 17:35:00,
2013-06-14 11:40:00,74.0,20.1,30.25,WNW,293,3.0,8.0,13,0.00,,---,0.00,VWS V14.01,2013-06-14 17:40:00,
2013-06-14 11:45:00,74.3,20.3,30.26,SW,232,6.0,8.0,13,0.00,,---,0.00,VWS V14.01,2013-06-14 17:45:00,
2013-06-14 11:50:00,73.8,21.7,30.26,South,172,3.0,8.0,14,0.00,,---,0.00,VWS V14.01,2013-06-14 17:50:00,
2013-06-14 11:55:00,74.2,22.0,30.26,SSW,206,2.0,8.0,14,0.00,,---,0.00,VWS V14.01,2013-06-14 17:55:00,
2013-06-14 12:00:00,74.7,24.0,30.26,SSW,194,3.0,10.0,15,0.00,,---,0.00,VWS V14.01,2013-06-14 18:00:00,
2013-06-14 12:05:00,74.9,20.8,30.26,SE,141,1.0,2.0,13,0.00,,---,0.00,VWS V14.01,2013-06-14 18:05:00,
2013-06-14 12:10:00,75.0,25.8,30.26,SW,234,4.0,6.0,16,0.00,,---,0.00,VWS V14.01,2013-06-14 18:10:00,
2013-06-14 12:15:00,75.1,22.7,30.26,SSW,204,1.0,7.0,14,0.00,,---,0.00,VWS V14.01,2013-06-14 18:15:00,
2013-06-14 12:20:00,75.1,20.9,30.26,SSE,163,3.0,8.0,13,0.00,,---,0.00,VWS V14.01,2013-06-14 18:20:00,
2013-06-14 12:25:00,75.7,23.2,30.26,West,269,4.0,8.0,14,0.00,,---,0.00,VWS V14.01,2013-06-14 18:25:00,
2013-06-14 12:30:00,75.6,23.1,30.26,ESE,108,3.0,9.0,14,0.00,,---,0.00,VWS V14.01,2013-06-14 18:30:00,
2013-06-14 12:35:00,76.1,23.5,30.26,SSW,206,5.0,5.0,14,0.00,,---,0.00,VWS V14.01,2013-06-14 18:35:00,
2013-06-14 12:40:00,76.3,21.9,30.25,WSW,238,2.0,7.0,13,0.00,,---,0.00,VWS V14.01,2013-06-14 18:40:00,
2013-06-14 12:45:00,75.2,22.8,30.25,WSW,256,0.0,7.0,14,0.00,,---,0.00,VWS V14.01,2013-06-14 18:45:00,
2013-06-14 12:50:00,75.0,22.6,30.25,WSW,256,1.0,7.0,14,0.00,,---,0.00,VWS V14.01,2013-06-14 18:50:00,
2013-06-14 12:55:00,75.1,22.7,30.25,SW,236,2.0,8.0,14,0.00,,---,0.00,VWS V14.01,2013-06-14 18:55:00,
2013-06-14 13:00:00,74.5,22.2,30.25,WSW,238,4.0,8.0,14,0.00,,---,0.00,VWS V14.01,2013-06-14 19:00:00,
2013-06-14 13:05:00,74.4,23.8,30.25,WSW,240,2.0,3.0,15,0.00,,---,0.00,VWS V14.01,2013-06-14 19:05:00,
2013-06-14 13:10:00,75.0,22.6,30.24,West,266,2.0,8.0,14,0.00,,---,0.00,VWS V14.01,2013-06-14 19:10:00,
2013-06-14 13:15:00,75.9,25.0,30.24,WSW,243,5.0,9.0,15,0.00,,---,0.00,VWS V14.01,2013-06-14 19:15:00,
2013-06-14 13:20:00,76.3,23.6,30.24,WNW,300,1.0,9.0,14,0.00,,---,0.00,VWS V14.01,2013-06-14 19:20:00,
2013-06-14 13:25:00,76.5,22.0,30.24,SSW,207,3.0,9.0,13,0.00,,---,0.00,VWS V14.01,2013-06-14 19:25:00,
2013-06-14 13:30:00,76.4,23.7,30.24,WSW,240,2.0,9.0,14,0.00,,---,0.00,VWS V14.01,2013-06-14 19:30:00,
2013-06-14 13:35:00,77.3,22.7,30.24,SW,222,2.0,3.0,13,0.00,,---,0.00,VWS V14.01,2013-06-14 19:35:00,
2013-06-14 13:40:00,77.1,22.5,30.24,SW,225,5.0,7.0,13,0.00,,---,0.00,VWS V14.01,2013-06-14 19:40:00,
2013-06-14 13:45:00,77.1,22.5,30.24,SSW,207,4.0,8.0,13,0.00,,---,0.00,VWS V14.01,2013-06-14 19:45:00,
2013-06-14 13:50:00,77.6,22.9,30.24,South,191,1.0,8.0,13,0.00,,---,0.00,VWS V14.01,2013-06-14 19:50:00,
2013-06-14 13:55:00,78.2,25.1,30.23,SSW,210,4.0,8.0,14,0.00,,---,0.00,VWS V14.01,2013-06-14 19:55:00,
2013-06-14 14:00:00,77.9,24.9,30.23,South,177,2.0,8.0,14,0.00,,---,0.00,VWS V14.01,2013-06-14 20:00:00,
2013-06-14 14:05:00,79.0,24.0,30.23,West,259,2.0,2.0,13,0.00,,---,0.00,VWS V14.01,2013-06-14 20:05:00,
2013-06-14 14:10:00,78.1,23.3,30.23,WSW,252,12.0,12.0,13,0.00,,---,0.00,VWS V14.01,2013-06-14 20:10:00,
2013-06-14 14:15:00,77.6,24.7,30.23,WSW,238,1.0,12.0,14,0.00,,---,0.00,VWS V14.01,2013-06-14 20:15:00,
2013-06-14 14:20:00,77.2,30.5,30.23,SE,133,5.0,12.0,18,0.00,,---,0.00,VWS V14.01,2013-06-14 20:20:00,
2013-06-14 14:25:00,75.6,31.7,30.23,SSW,207,1.0,12.0,20,0.00,,---,0.00,VWS V14.01,2013-06-14 20:25:00,
2013-06-14 14:30:00,75.0,32.5,30.23,ESE,117,4.0,12.0,21,0.00,,---,0.00,VWS V14.01,2013-06-14 20:30:00,
2013-06-14 14:35:00,75.0,32.5,30.23,SE,124,3.0,3.0,21,0.00,,---,0.00,VWS V14.01,2013-06-14 20:35:00,
2013-06-14 14:40:00,76.0,32.1,30.22,SSE,153,2.0,6.0,20,0.00,,---,0.00,VWS V14.01,2013-06-14 20:40:00,
2013-06-14 14:45:00,76.1,33.4,30.23,South,179,3.0,6.0,21,0.00,,---,0.00,VWS V14.01,2013-06-14 20:45:00,
2013-06-14 14:50:00,75.0,31.2,30.22,SE,129,4.0,6.0,20,0.00,,---,0.00,VWS V14.01,2013-06-14 20:50:00,
2013-06-14 14:55:00,74.5,32.0,30.23,SSW,205,0.0,6.0,21,0.00,,---,0.00,VWS V14.01,2013-06-14 20:55:00,
2013-06-14 15:00:00,74.0,31.6,30.23,West,271,2.0,6.0,21,0.00,,---,0.00,VWS V14.01,2013-06-14 21:00:00,
2013-06-14 15:05:00,73.3,32.2,30.22,ESE,115,5.0,5.0,22,0.00,,---,0.00,VWS V14.01,2013-06-14 21:05:00,
2013-06-14 15:10:00,73.1,32.0,30.22,SSE,158,2.0,6.0,22,0.00,,---,0.00,VWS V14.01,2013-06-14 21:10:00,
2013-06-14 15:15:00,75.5,32.9,30.22,ESE,111,2.0,6.0,21,0.00,,---,0.00,VWS V14.01,2013-06-14 21:15:00,
2013-06-14 15:20:00,76.8,32.7,30.22,SE,124,1.0,6.0,20,0.00,,---,0.00,VWS V14.01,2013-06-14 21:20:00,
2013-06-14 15:25:00,75.8,31.9,30.22,ESE,120,0.0,6.0,20,0.00,,---,0.00,VWS V14.01,2013-06-14 21:25:00,
2013-06-14 15:30:00,75.0,32.5,30.22,East,100,1.0,6.0,21,0.00,,---,0.00,VWS V14.01,2013-06-14 21:30:00,
2013-06-14 15:35:00,74.5,34.3,30.22,SE,125,1.0,1.0,23,0.00,,---,0.00,VWS V14.01,2013-06-14 21:35:00,
2013-06-14 15:40:00,74.7,33.4,30.22,ESE,115,1.0,2.0,22,0.00,,---,0.00,VWS V14.01,2013-06-14 21:40:00,
2013-06-14 15:45:00,74.4,35.3,30.22,ESE,120,1.0,2.0,24,0.00,,---,0.00,VWS V14.01,2013-06-14 21:45:00,
2013-06-14 15:50:00,73.9,34.9,30.22,ESE,122,1.0,4.0,24,0.00,,---,0.00,VWS V14.01,2013-06-14 21:50:00,
2013-06-14 15:55:00,73.6,35.6,30.22,ESE,120,0.0,4.0,25,0.00,,---,0.00,VWS V14.01,2013-06-14 21:55:00,
2013-06-14 16:00:00,73.5,35.6,30.21,ESE,105,1.0,4.0,25,0.00,,---,0.00,VWS V14.01,2013-06-14 22:00:00,
2013-06-14 16:05:00,72.4,35.6,30.21,SSE,148,3.0,4.0,26,0.00,,---,0.00,VWS V14.01,2013-06-14 22:05:00,
2013-06-14 16:10:00,73.0,37.1,30.21,SE,135,2.0,5.0,27,0.00,,---,0.00,VWS V14.01,2013-06-14 22:10:00,
2013-06-14 16:15:00,73.1,36.2,30.21,SE,136,4.0,5.0,26,0.00,,---,0.00,VWS V14.01,2013-06-14 22:15:00,
2013-06-14 16:20:00,72.1,35.4,30.21,SSE,153,3.0,5.0,26,0.00,,---,0.00,VWS V14.01,2013-06-14 22:20:00,
2013-06-14 16:25:00,71.4,35.7,30.21,South,172,3.0,5.0,27,0.00,,---,0.00,VWS V14.01,2013-06-14 22:25:00,
2013-06-14 16:30:00,71.4,35.7,30.21,ESE,122,4.0,5.0,27,0.00,,---,0.00,VWS V14.01,2013-06-14 22:30:00,
2013-06-14 16:35:00,71.7,36.9,30.21,SE,143,1.0,1.0,28,0.00,,---,0.00,VWS V14.01,2013-06-14 22:35:00,
2013-06-14 16:40:00,71.6,36.8,30.20,SE,124,3.0,5.0,28,0.00,,---,0.00,VWS V14.01,2013-06-14 22:40:00,
2013-06-14 16:45:00,71.9,37.1,30.20,ESE,115,2.0,5.0,28,0.00,,---,0.00,VWS V14.01,2013-06-14 22:45:00,
2013-06-14 16:50:00,71.9,38.0,30.21,SE,124,1.0,6.0,29,0.00,,---,0.00,VWS V14.01,2013-06-14 22:50:00,
2013-06-14 16:55:00,71.7,37.8,30.21,ESE,107,1.0,7.0,29,0.00,,---,0.00,VWS V14.01,2013-06-14 22:55:00,
2013-06-14 17:00:00,71.3,38.3,30.21,SE,131,2.0,7.0,30,0.00,,---,0.00,VWS V14.01,2013-06-14 23:00:00,
2013-06-14 17:05:00,72.3,38.3,30.21,East,93,3.0,3.0,29,0.00,,---,0.00,VWS V14.01,2013-06-14 23:05:00,
2013-06-14 17:10:00,73.1,39.0,30.20,South,173,3.0,5.0,29,0.00,,---,0.00,VWS V14.01,2013-06-14 23:10:00,
2013-06-14 17:15:00,73.3,38.3,30.20,ESE,120,5.0,8.0,28,0.00,,---,0.00,VWS V14.01,2013-06-14 23:15:00,
2013-06-14 17:20:00,73.1,37.2,30.20,ESE,120,2.0,8.0,27,0.00,,---,0.00,VWS V14.01,2013-06-14 23:20:00,
2013-06-14 17:25:00,73.0,38.0,30.20,SE,129,1.0,8.0,28,0.00,,---,0.00,VWS V14.01,2013-06-14 23:25:00,
2013-06-14 17:30:00,73.5,37.5,30.20,ESE,120,1.0,8.0,27,0.00,,---,0.00,VWS V14.01,2013-06-14 23:30:00,
2013-06-14 17:35:00,73.1,38.1,30.20,ESE,120,3.0,4.0,28,0.00,,---,0.00,VWS V14.01,2013-06-14 23:35:00,
2013-06-14 17:40:00,73.1,37.2,30.20,SE,131,4.0,7.0,27,0.00,,---,0.00,VWS V14.01,2013-06-14 23:40:00,
2013-06-14 17:45:00,72.7,36.8,30.20,SSE,163,3.0,7.0,27,0.00,,---,0.00,VWS V14.01,2013-06-14 23:45:00,
2013-06-14 17:50:00,73.0,37.1,30.19,SSW,207,1.0,7.0,27,0.00,,---,0.00,VWS V14.01,2013-06-14 23:50:00,
2013-06-14 17:55:00,73.1,37.2,30.19,SE,131,2.0,7.0,27,0.00,,---,0.00,VWS V14.01,2013-06-14 23:55:00,
2013-06-14 18:00:00,72.8,36.9,30.19,SE,125,1.0,7.0,27,0.00,,---,0.00,VWS V14.01,2013-06-15 00:00:00,
2013-06-14 18:05:00,72.9,37.0,30.19,SE,131,2.0,7.0,27,0.00,,---,0.00,VWS V14.01,2013-06-15 00:05:00,
2013-06-14 18:10:00,72.6,36.7,30.19,SE,126,7.0,7.0,27,0.00,,---,0.00,VWS V14.01,2013-06-15 00:10:00,
2013-06-14 18:15:00,71.5,36.7,30.19,SE,132,3.0,7.0,28,0.00,,---,0.00,VWS V14.01,2013-06-15 00:15:00,
2013-06-14 18:20:00,71.3,36.5,30.19,SE,132,2.0,7.0,28,0.00,,---,0.00,VWS V14.01,2013-06-15 00:20:00,
2013-06-14 18:24:00,71.2,36.5,30.19,SE,127,0.0,7.0,28,0.00,,---,0.00,VWS V14.01,2013-06-15 00:24:00,
2013-06-14 18:29:00,71.3,36.5,30.19,SE,129,4.0,7.0,28,0.00,,---,0.00,VWS V14.01,2013-06-15 00:29:00,
2013-06-14 18:34:00,70.6,36.8,30.19,SE,139,1.0,7.0,29,0.00,,---,0.00,VWS V14.01,2013-06-15 00:34:00,
2013-06-14 18:39:00,70.4,36.7,30.19,ESE,117,1.0,6.0,29,0.00,,---,0.00,VWS V14.01,2013-06-15 00:39:00,
2013-06-14 18:44:00,70.3,36.6,30.20,SE,124,3.0,6.0,29,0.00,,---,0.00,VWS V14.01,2013-06-15 00:44:00,
2013-06-14 18:49:00,69.8,37.0,30.20,ESE,123,0.0,6.0,30,0.00,,---,0.00,VWS V14.01,2013-06-15 00:49:00,
2013-06-14 18:54:00,69.2,37.3,30.20,ESE,120,1.0,6.0,31,0.00,,---,0.00,VWS V14.01,2013-06-15 00:54:00,
2013-06-14 18:59:00,68.5,36.7,30.20,SE,124,1.0,6.0,31,0.00,,---,0.00,VWS V14.01,2013-06-15 00:59:00,
2013-06-14 19:04:00,68.1,37.2,30.20,SE,128,1.0,6.0,32,0.00,,---,0.00,VWS V14.01,2013-06-15 01:04:00,
2013-06-14 19:09:00,67.7,36.8,30.20,East,101,1.0,2.0,32,0.00,,---,0.00,VWS V14.01,2013-06-15 01:09:00,
2013-06-14 19:14:00,67.4,36.5,30.21,East,96,1.0,2.0,32,0.00,,---,0.00,VWS V14.01,2013-06-15 01:14:00,
2013-06-14 19:19:00,67.1,36.3,30.21,ESE,122,0.0,2.0,32,0.00,,---,0.00,VWS V14.01,2013-06-15 01:19:00,
2013-06-14 19:24:00,66.7,36.7,30.21,ESE,121,0.0,3.0,33,0.00,,---,0.00,VWS V14.01,2013-06-15 01:24:00,
2013-06-14 19:29:00,66.4,36.5,30.22,SSW,211,0.0,3.0,33,0.00,,---,0.00,VWS V14.01,2013-06-15 01:29:00,
2013-06-14 19:34:00,66.1,36.9,30.22,SE,145,0.0,3.0,34,0.00,,---,0.00,VWS V14.01,2013-06-15 01:34:00,
2013-06-14 19:39:00,65.9,36.8,30.22,SE,145,0.0,0.0,34,0.00,,---,0.00,VWS V14.01,2013-06-15 01:39:00,
2013-06-14 19:44:00,65.5,36.4,30.22,SE,146,0.0,1.0,34,0.00,,---,0.00,VWS V14.01,2013-06-15 01:44:00,
2013-06-14 19:49:00,65.2,36.2,30.23,SW,217,0.0,1.0,34,0.00,,---,0.00,VWS V14.01,2013-06-15 01:49:00,
2013-06-14 19:54:00,64.9,35.9,30.23,SSE,150,0.0,1.0,34,0.00,,---,0.00,VWS V14.01,2013-06-15 01:54:00,
2013-06-14 19:59:00,64.6,36.3,30.23,SSE,152,0.0,1.0,35,0.00,,---,0.00,VWS V14.01,2013-06-15 01:59:00,
2013-06-14 20:04:00,64.3,36.1,30.23,SSW,210,0.0,1.0,35,0.00,,---,0.00,VWS V14.01,2013-06-15 02:04:00,
2013-06-14 20:09:00,64.0,36.5,30.23,SSW,200,0.0,0.0,36,0.00,,---,0.00,VWS V14.01,2013-06-15 02:09:00,
2013-06-14 20:14:00,63.6,36.2,30.23,SSW,200,0.0,0.0,36,0.00,,---,0.00,VWS V14.01,2013-06-15 02:14:00,
2013-06-14 20:19:00,63.1,37.1,30.23,ESE,105,0.0,2.0,38,0.00,,---,0.00,VWS V14.01,2013-06-15 02:19:00,
2013-06-14 20:24:00,62.7,36.8,30.23,NE,40,0.0,2.0,38,0.00,,---,0.00,VWS V14.01,2013-06-15 02:24:00,
2013-06-14 20:29:00,62.0,37.4,30.23,NNW,347,0.0,2.0,40,0.00,,---,0.00,VWS V14.01,2013-06-15 02:29:00,
2013-06-14 20:34:00,61.4,37.5,30.23,NNW,341,1.0,2.0,41,0.00,,---,0.00,VWS V14.01,2013-06-15 02:34:00,
2013-06-14 20:39:00,61.1,37.9,30.23,NNW,342,0.0,2.0,42,0.00,,---,0.00,VWS V14.01,2013-06-15 02:39:00,
2013-06-14 20:44:00,60.7,37.5,30.24,NNW,342,0.0,2.0,42,0.00,,---,0.00,VWS V14.01,2013-06-15 02:44:00,
2013-06-14 20:49:00,60.3,37.7,30.24,NW,324,2.0,2.0,43,0.00,,---,0.00,VWS V14.01,2013-06-15 02:49:00,
2013-06-14 20:54:00,60.1,38.1,30.24,SE,141,0.0,2.0,44,0.00,,---,0.00,VWS V14.01,2013-06-15 02:54:00,
2013-06-14 20:59:00,60.2,39.4,30.24,ESE,120,2.0,3.0,46,0.00,,---,0.00,VWS V14.01,2013-06-15 02:59:00,
2013-06-14 21:04:00,59.9,39.6,30.24,SSW,211,0.0,3.0,47,0.00,,---,0.00,VWS V14.01,2013-06-15 03:04:00,
2013-06-14 21:09:00,59.5,39.8,30.24,SSW,212,0.0,0.0,48,0.00,,---,0.00,VWS V14.01,2013-06-15 03:09:00,
2013-06-14 21:14:00,59.0,39.9,30.24,SW,214,0.0,0.0,49,0.00,,---,0.00,VWS V14.01,2013-06-15 03:14:00,
2013-06-14 21:19:00,58.4,39.8,30.24,SW,214,0.0,0.0,50,0.00,,---,0.00,VWS V14.01,2013-06-15 03:19:00,
2013-06-14 21:24:00,57.9,40.4,30.25,SW,214,0.0,0.0,52,0.00,,---,0.00,VWS V14.01,2013-06-15 03:24:00,
2013-06-14 21:29:00,57.1,40.2,30.25,SW,214,0.0,0.0,53,0.00,,---,0.00,VWS V14.01,2013-06-15 03:29:00,
2013-06-14 21:34:00,56.4,40.5,30.25,WNW,302,0.0,0.0,55,0.00,,---,0.00,VWS V14.01,2013-06-15 03:34:00,
2013-06-14 21:39:00,55.7,40.7,30.25,NNW,333,2.0,2.0,57,0.00,,---,0.00,VWS V14.01,2013-06-15 03:39:00,
2013-06-14 21:44:00,55.4,40.9,30.25,NNW,343,0.0,3.0,58,0.00,,---,0.00,VWS V14.01,2013-06-15 03:44:00,
2013-06-14 21:49:00,55.4,40.9,30.26,NNW,338,1.0,3.0,58,0.00,,---,0.00,VWS V14.01,2013-06-15 03:49:00,
2013-06-14 21:54:00,55.3,40.8,30.26,NNW,337,0.0,3.0,58,0.00,,---,0.00,VWS V14.01,2013-06-15 03:54:00,
2013-06-14 21:59:00,55.0,41.0,30.26,NNW,340,1.0,3.0,59,0.00,,---,0.00,VWS V14.01,2013-06-15 03:59:00,
2013-06-14 22:01:00,54.9,40.9,30.26,NNW,340,1.0,3.0,59,0.00,,---,0.00,VWS V14.01,2013-06-15 04:01:00,
2013-06-14 22:06:00,54.4,40.8,30.26,NNW,340,0.0,0.0,60,0.00,,---,0.00,VWS V14.01,2013-06-15 04:06:00,
2013-06-14 22:11:00,54.1,41.0,30.26,NNW,340,1.0,2.0,61,0.00,,---,0.00,VWS V14.01,2013-06-15 04:11:00,
2013-06-14 22:16:00,53.8,41.1,30.26,NNW,340,1.0,2.0,62,0.00,,---,0.00,VWS V14.01,2013-06-15 04:16:00,
2013-06-14 22:21:00,53.7,41.0,30.26,NNW,340,0.0,2.0,62,0.00,,---,0.00,VWS V14.01,2013-06-15 04:21:00,
2013-06-14 22:26:00,53.3,40.6,30.26,NNW,340,1.0,2.0,62,0.00,,---,0.00,VWS V14.01,2013-06-15 04:26:00,
2013-06-14 22:31:00,53.0,40.8,30.26,NW,316,1.0,2.0,63,0.00,,---,0.00,VWS V14.01,2013-06-15 04:31:00,
2013-06-14 22:36:00,53.3,41.0,30.26,NW,315,1.0,1.0,63,0.00,,---,0.00,VWS V14.01,2013-06-15 04:36:00,
2013-06-14 22:41:00,53.5,40.8,30.26,West,276,1.0,2.0,62,0.00,,---,0.00,VWS V14.01,2013-06-15 04:41:00,
2013-06-14 22:46:00,53.7,40.6,30.26,West,269,1.0,2.0,61,0.00,,---,0.00,VWS V14.01,2013-06-15 04:46:00,
2013-06-14 22:51:00,53.6,40.5,30.26,West,259,1.0,2.0,61,0.00,,---,0.00,VWS V14.01,2013-06-15 04:51:00,
2013-06-14 22:56:00,53.6,40.5,30.25,WSW,250,1.0,3.0,61,0.00,,---,0.00,VWS V14.01,2013-06-15 04:56:00,
2013-06-14 23:01:00,53.2,40.5,30.25,NW,308,2.0,3.0,62,0.00,,---,0.00,VWS V14.01,2013-06-15 05:01:00,
2013-06-14 23:06:00,53.4,40.7,30.25,WNW,295,1.0,2.0,62,0.00,,---,0.00,VWS V14.01,2013-06-15 05:06:00,
2013-06-14 23:11:00,53.7,41.0,30.25,WSW,248,0.0,2.0,62,0.00,,---,0.00,VWS V14.01,2013-06-15 05:11:00,
2013-06-14 23:16:00,53.8,40.7,30.25,NNE,25,0.0,2.0,61,0.00,,---,0.00,VWS V14.01,2013-06-15 05:16:00,
2013-06-14 23:21:00,52.9,40.2,30.25,WSW,253,1.0,2.0,62,0.00,,---,0.00,VWS V14.01,2013-06-15 05:21:00,
2013-06-14 23:26:00,52.3,39.7,30.24,NNW,328,1.0,3.0,62,0.00,,---,0.00,VWS V14.01,2013-06-15 05:26:00,
2013-06-14 23:31:00,52.2,40.0,30.24,NNW,338,1.0,3.0,63,0.00,,---,0.00,VWS V14.01,2013-06-15 05:31:00,
2013-06-14 23:36:00,52.1,39.9,30.24,NNW,340,1.0,2.0,63,0.00,,---,0.00,VWS V14.01,2013-06-15 05:36:00,
2013-06-14 23:41:00,51.9,39.7,30.24,NNW,343,1.0,2.0,63,0.00,,---,0.00,VWS V14.01,2013-06-15 05:41:00,
2013-06-14 23:46:00,52.0,40.2,30.24,NNW,335,1.0,2.0,64,0.00,,---,0.00,VWS V14.01,2013-06-15 05:46:00,
2013-06-14 23:51:00,52.0,39.8,30.24,NNW,327,2.0,3.0,63,0.00,,---,0.00,VWS V14.01,2013-06-15 05:51:00,
2013-06-14 23:56:00,51.7,39.9,30.24,NW,323,2.0,3.0,64,0.00,,---,0.00,VWS V14.01,2013-06-15 05:56:00,